sensor_id;sensor_type;location;lat;lon;timestamp;P1;durP1;ratioP1;P2;durP2;ratioP2
54157;SDS011;40065;49.894;10.358;2023-07-24T00:01:17;6.68;;;2.90;;
54157;SDS011;40065;49.894;10.358;2023-07-24T00:06:19;5.65;;;3.40;;
54157;SDS011;40065;49.894;10.358;2023-07-24T00:11:21;6.80;;;2.80;;
54157;SDS011;40065;49.894;10.358;2023-07-24T00:16:23;5.30;;;3.15;;
54157;SDS011;40065;49.894;10.358;2023-07-24T00:21:25;5.65;;;2.92;;
54157;SDS011;40065;49.894;10.358;2023-07-24T00:26:27;5.32;;;3.20;;
54157;SDS011;40065;49.894;10.358;2023-07-24T00:31:30;5.60;;;2.70;;
54157;SDS011;40065;49.894;10.358;2023-07-24T00:36:32;5.35;;;2.92;;
54157;SDS011;40065;49.894;10.358;2023-07-24T00:41:34;4.85;;;3.05;;
54157;SDS011;40065;49.894;10.358;2023-07-24T00:46:35;6.28;;;3.10;;
54157;SDS011;40065;49.894;10.358;2023-07-24T00:51:38;4.43;;;2.95;;
54157;SDS011;40065;49.894;10.358;2023-07-24T00:56:41;4.63;;;2.50;;
54157;SDS011;40065;49.894;10.358;2023-07-24T01:01:43;5.72;;;3.40;;
54157;SDS011;40065;49.894;10.358;2023-07-24T01:06:46;6.33;;;3.73;;
54157;SDS011;40065;49.894;10.358;2023-07-24T01:11:54;5.97;;;3.58;;
54157;SDS011;40065;49.894;10.358;2023-07-24T01:27:30;7.18;;;3.80;;
54157;SDS011;40065;49.894;10.358;2023-07-24T01:32:31;7.72;;;4.25;;
54157;SDS011;40065;49.894;10.358;2023-07-24T01:37:34;7.25;;;3.85;;
54157;SDS011;40065;49.894;10.358;2023-07-24T01:42:36;6.73;;;3.93;;
54157;SDS011;40065;49.894;10.358;2023-07-24T01:47:39;5.63;;;3.35;;
54157;SDS011;40065;49.894;10.358;2023-07-24T01:52:41;6.20;;;3.30;;
54157;SDS011;40065;49.894;10.358;2023-07-24T01:57:43;7.35;;;3.75;;
54157;SDS011;40065;49.894;10.358;2023-07-24T02:02:45;6.70;;;3.40;;
54157;SDS011;40065;49.894;10.358;2023-07-24T02:07:48;6.70;;;3.90;;
54157;SDS011;40065;49.894;10.358;2023-07-24T02:12:50;6.75;;;3.65;;
54157;SDS011;40065;49.894;10.358;2023-07-24T02:17:52;6.75;;;3.95;;
54157;SDS011;40065;49.894;10.358;2023-07-24T02:22:53;8.05;;;4.40;;
54157;SDS011;40065;49.894;10.358;2023-07-24T02:27:55;10.13;;;4.57;;
54157;SDS011;40065;49.894;10.358;2023-07-24T02:32:57;9.07;;;5.10;;
54157;SDS011;40065;49.894;10.358;2023-07-24T02:37:59;9.23;;;5.28;;
54157;SDS011;40065;49.894;10.358;2023-07-24T02:43:01;10.55;;;4.90;;
54157;SDS011;40065;49.894;10.358;2023-07-24T02:48:03;6.95;;;4.40;;
54157;SDS011;40065;49.894;10.358;2023-07-24T02:53:06;8.48;;;4.55;;
54157;SDS011;40065;49.894;10.358;2023-07-24T02:58:08;9.57;;;4.88;;
54157;SDS011;40065;49.894;10.358;2023-07-24T03:03:10;8.60;;;4.32;;
54157;SDS011;40065;49.894;10.358;2023-07-24T03:08:12;7.40;;;4.60;;
54157;SDS011;40065;49.894;10.358;2023-07-24T03:13:14;6.43;;;4.20;;
54157;SDS011;40065;49.894;10.358;2023-07-24T03:18:16;8.25;;;4.50;;
54157;SDS011;40065;49.894;10.358;2023-07-24T03:23:18;8.32;;;4.13;;
54157;SDS011;40065;49.894;10.358;2023-07-24T03:28:21;7.60;;;4.68;;
54157;SDS011;40065;49.894;10.358;2023-07-24T03:33:24;9.77;;;5.22;;
54157;SDS011;40065;49.894;10.358;2023-07-24T03:38:26;7.75;;;4.28;;
54157;SDS011;40065;49.894;10.358;2023-07-24T03:43:28;8.23;;;4.57;;
54157;SDS011;40065;49.894;10.358;2023-07-24T03:48:29;9.68;;;4.95;;
54157;SDS011;40065;49.894;10.358;2023-07-24T03:53:31;8.80;;;5.22;;
54157;SDS011;40065;49.894;10.358;2023-07-24T03:58:33;9.15;;;5.00;;
54157;SDS011;40065;49.894;10.358;2023-07-24T04:03:35;9.50;;;4.82;;
54157;SDS011;40065;49.894;10.358;2023-07-24T04:08:37;8.10;;;4.28;;
54157;SDS011;40065;49.894;10.358;2023-07-24T04:13:39;8.07;;;4.72;;
54157;SDS011;40065;49.894;10.358;2023-07-24T04:18:41;8.90;;;5.13;;
54157;SDS011;40065;49.894;10.358;2023-07-24T04:23:43;8.45;;;4.60;;
54157;SDS011;40065;49.894;10.358;2023-07-24T04:28:45;6.93;;;3.88;;
54157;SDS011;40065;49.894;10.358;2023-07-24T04:33:46;9.35;;;4.80;;
54157;SDS011;40065;49.894;10.358;2023-07-24T04:38:48;8.95;;;4.75;;
54157;SDS011;40065;49.894;10.358;2023-07-24T04:43:50;8.38;;;4.60;;
54157;SDS011;40065;49.894;10.358;2023-07-24T04:48:52;8.65;;;5.30;;
54157;SDS011;40065;49.894;10.358;2023-07-24T04:53:54;9.93;;;5.20;;
54157;SDS011;40065;49.894;10.358;2023-07-24T04:58:56;7.50;;;4.35;;
54157;SDS011;40065;49.894;10.358;2023-07-24T05:03:58;10.00;;;5.15;;
54157;SDS011;40065;49.894;10.358;2023-07-24T05:09:00;7.63;;;4.50;;
54157;SDS011;40065;49.894;10.358;2023-07-24T05:14:03;8.40;;;4.73;;
54157;SDS011;40065;49.894;10.358;2023-07-24T05:19:05;8.30;;;5.18;;
54157;SDS011;40065;49.894;10.358;2023-07-24T05:24:07;8.82;;;5.00;;
54157;SDS011;40065;49.894;10.358;2023-07-24T05:29:09;10.65;;;4.90;;
54157;SDS011;40065;49.894;10.358;2023-07-24T05:34:11;12.73;;;5.50;;
54157;SDS011;40065;49.894;10.358;2023-07-24T05:39:13;9.77;;;4.80;;
54157;SDS011;40065;49.894;10.358;2023-07-24T05:44:16;8.30;;;5.13;;
54157;SDS011;40065;49.894;10.358;2023-07-24T05:49:18;9.38;;;5.55;;
54157;SDS011;40065;49.894;10.358;2023-07-24T05:54:20;8.93;;;4.72;;
54157;SDS011;40065;49.894;10.358;2023-07-24T05:59:22;8.35;;;4.60;;
54157;SDS011;40065;49.894;10.358;2023-07-24T06:04:24;7.45;;;4.70;;
54157;SDS011;40065;49.894;10.358;2023-07-24T06:09:26;7.80;;;4.65;;
54157;SDS011;40065;49.894;10.358;2023-07-24T06:14:28;8.40;;;4.95;;
54157;SDS011;40065;49.894;10.358;2023-07-24T06:19:30;8.02;;;5.07;;
54157;SDS011;40065;49.894;10.358;2023-07-24T06:24:32;9.80;;;5.05;;
54157;SDS011;40065;49.894;10.358;2023-07-24T06:29:34;10.73;;;5.95;;
54157;SDS011;40065;49.894;10.358;2023-07-24T06:34:37;8.80;;;5.60;;
54157;SDS011;40065;49.894;10.358;2023-07-24T06:39:40;9.18;;;5.38;;
54157;SDS011;40065;49.894;10.358;2023-07-24T06:44:42;9.70;;;5.55;;
54157;SDS011;40065;49.894;10.358;2023-07-24T06:49:43;11.45;;;6.05;;
54157;SDS011;40065;49.894;10.358;2023-07-24T06:54:45;10.73;;;6.25;;
54157;SDS011;40065;49.894;10.358;2023-07-24T06:59:47;10.32;;;6.53;;
54157;SDS011;40065;49.894;10.358;2023-07-24T07:04:49;10.15;;;6.40;;
54157;SDS011;40065;49.894;10.358;2023-07-24T07:09:51;10.80;;;6.22;;
54157;SDS011;40065;49.894;10.358;2023-07-24T07:14:53;12.25;;;5.85;;
54157;SDS011;40065;49.894;10.358;2023-07-24T07:19:55;9.80;;;5.65;;
54157;SDS011;40065;49.894;10.358;2023-07-24T07:30:00;10.25;;;5.88;;
54157;SDS011;40065;49.894;10.358;2023-07-24T07:35:02;9.98;;;5.50;;
54157;SDS011;40065;49.894;10.358;2023-07-24T07:40:05;8.73;;;5.40;;
54157;SDS011;40065;49.894;10.358;2023-07-24T07:45:07;9.57;;;5.67;;
54157;SDS011;40065;49.894;10.358;2023-07-24T07:50:10;10.10;;;6.00;;
54157;SDS011;40065;49.894;10.358;2023-07-24T07:55:12;12.88;;;6.30;;
54157;SDS011;40065;49.894;10.358;2023-07-24T08:00:15;10.27;;;6.37;;
54157;SDS011;40065;49.894;10.358;2023-07-24T08:05:17;9.90;;;6.20;;
54157;SDS011;40065;49.894;10.358;2023-07-24T08:10:22;11.88;;;6.97;;
54157;SDS011;40065;49.894;10.358;2023-07-24T08:15:24;9.90;;;5.85;;
54157;SDS011;40065;49.894;10.358;2023-07-24T08:20:25;10.50;;;6.28;;
54157;SDS011;40065;49.894;10.358;2023-07-24T08:25:27;11.35;;;6.13;;
54157;SDS011;40065;49.894;10.358;2023-07-24T08:30:29;14.23;;;6.38;;
54157;SDS011;40065;49.894;10.358;2023-07-24T08:35:31;8.75;;;5.32;;
54157;SDS011;40065;49.894;10.358;2023-07-24T08:40:33;8.40;;;5.65;;
54157;SDS011;40065;49.894;10.358;2023-07-24T08:45:35;11.25;;;6.65;;
54157;SDS011;40065;49.894;10.358;2023-07-24T08:50:38;11.35;;;6.15;;
54157;SDS011;40065;49.894;10.358;2023-07-24T08:55:40;9.98;;;6.00;;
54157;SDS011;40065;49.894;10.358;2023-07-24T09:00:43;10.87;;;6.40;;
54157;SDS011;40065;49.894;10.358;2023-07-24T09:05:45;15.93;;;7.70;;
54157;SDS011;40065;49.894;10.358;2023-07-24T09:10:50;16.67;;;8.10;;
54157;SDS011;40065;49.894;10.358;2023-07-24T09:15:51;13.93;;;7.55;;
54157;SDS011;40065;49.894;10.358;2023-07-24T09:20:54;12.65;;;7.93;;
54157;SDS011;40065;49.894;10.358;2023-07-24T09:25:57;16.43;;;7.33;;
54157;SDS011;40065;49.894;10.358;2023-07-24T09:30:59;15.98;;;8.35;;
54157;SDS011;40065;49.894;10.358;2023-07-24T09:36:06;14.77;;;8.45;;
54157;SDS011;40065;49.894;10.358;2023-07-24T09:41:10;15.32;;;7.75;;
54157;SDS011;40065;49.894;10.358;2023-07-24T09:46:13;12.98;;;8.20;;
54157;SDS011;40065;49.894;10.358;2023-07-24T09:51:15;13.75;;;8.05;;
54157;SDS011;40065;49.894;10.358;2023-07-24T09:56:18;16.88;;;9.05;;
54157;SDS011;40065;49.894;10.358;2023-07-24T10:01:32;16.35;;;8.80;;
54157;SDS011;40065;49.894;10.358;2023-07-24T10:06:35;14.27;;;8.43;;
54157;SDS011;40065;49.894;10.358;2023-07-24T10:11:38;12.93;;;8.02;;
54157;SDS011;40065;49.894;10.358;2023-07-24T10:16:39;11.15;;;7.10;;
54157;SDS011;40065;49.894;10.358;2023-07-24T10:21:46;12.38;;;7.15;;
54157;SDS011;40065;49.894;10.358;2023-07-24T10:26:49;13.75;;;7.65;;
54157;SDS011;40065;49.894;10.358;2023-07-24T10:31:55;11.65;;;6.93;;
54157;SDS011;40065;49.894;10.358;2023-07-24T10:37:02;10.07;;;6.25;;
54157;SDS011;40065;49.894;10.358;2023-07-24T10:42:05;11.18;;;6.80;;
54157;SDS011;40065;49.894;10.358;2023-07-24T10:47:08;11.75;;;6.93;;
54157;SDS011;40065;49.894;10.358;2023-07-24T10:52:10;13.57;;;6.93;;
54157;SDS011;40065;49.894;10.358;2023-07-24T10:57:12;11.60;;;7.40;;
54157;SDS011;40065;49.894;10.358;2023-07-24T11:02:14;11.70;;;7.15;;
54157;SDS011;40065;49.894;10.358;2023-07-24T11:07:18;11.38;;;7.10;;
54157;SDS011;40065;49.894;10.358;2023-07-24T11:12:20;11.73;;;7.72;;
54157;SDS011;40065;49.894;10.358;2023-07-24T11:17:33;11.68;;;7.45;;
54157;SDS011;40065;49.894;10.358;2023-07-24T11:22:39;13.07;;;7.43;;
54157;SDS011;40065;49.894;10.358;2023-07-24T11:27:43;11.68;;;6.68;;
54157;SDS011;40065;49.894;10.358;2023-07-24T11:32:45;10.30;;;6.57;;
54157;SDS011;40065;49.894;10.358;2023-07-24T11:37:48;8.90;;;5.88;;
54157;SDS011;40065;49.894;10.358;2023-07-24T11:42:50;10.13;;;5.63;;
54157;SDS011;40065;49.894;10.358;2023-07-24T11:47:52;9.85;;;5.50;;
54157;SDS011;40065;49.894;10.358;2023-07-24T11:52:55;9.38;;;5.18;;
54157;SDS011;40065;49.894;10.358;2023-07-24T11:58:00;9.48;;;5.53;;
54157;SDS011;40065;49.894;10.358;2023-07-24T12:03:04;9.60;;;5.55;;
54157;SDS011;40065;49.894;10.358;2023-07-24T12:08:09;10.23;;;5.95;;
54157;SDS011;40065;49.894;10.358;2023-07-24T12:18:14;10.82;;;6.20;;
54157;SDS011;40065;49.894;10.358;2023-07-24T12:23:17;11.32;;;6.32;;
54157;SDS011;40065;49.894;10.358;2023-07-24T12:28:19;10.00;;;6.10;;
54157;SDS011;40065;49.894;10.358;2023-07-24T12:33:21;10.00;;;6.15;;
54157;SDS011;40065;49.894;10.358;2023-07-24T12:38:25;9.27;;;5.68;;
54157;SDS011;40065;49.894;10.358;2023-07-24T12:43:27;8.20;;;5.22;;
54157;SDS011;40065;49.894;10.358;2023-07-24T12:48:29;9.52;;;5.90;;
54157;SDS011;40065;49.894;10.358;2023-07-24T12:53:33;10.93;;;5.80;;
54157;SDS011;40065;49.894;10.358;2023-07-24T12:58:55;8.90;;;5.85;;
54157;SDS011;40065;49.894;10.358;2023-07-24T13:03:57;8.38;;;5.38;;
54157;SDS011;40065;49.894;10.358;2023-07-24T13:08:59;10.80;;;5.90;;
54157;SDS011;40065;49.894;10.358;2023-07-24T13:14:01;9.57;;;5.70;;
54157;SDS011;40065;49.894;10.358;2023-07-24T13:19:04;8.02;;;4.85;;
54157;SDS011;40065;49.894;10.358;2023-07-24T13:24:06;8.68;;;5.18;;
54157;SDS011;40065;49.894;10.358;2023-07-24T13:29:08;7.30;;;5.00;;
54157;SDS011;40065;49.894;10.358;2023-07-24T13:34:10;8.23;;;4.97;;
54157;SDS011;40065;49.894;10.358;2023-07-24T13:39:12;10.10;;;5.75;;
54157;SDS011;40065;49.894;10.358;2023-07-24T13:44:14;8.68;;;5.47;;
54157;SDS011;40065;49.894;10.358;2023-07-24T13:49:16;9.25;;;5.00;;
54157;SDS011;40065;49.894;10.358;2023-07-24T13:54:19;7.72;;;5.30;;
54157;SDS011;40065;49.894;10.358;2023-07-24T13:59:21;8.15;;;5.00;;
54157;SDS011;40065;49.894;10.358;2023-07-24T14:04:23;8.77;;;5.05;;
54157;SDS011;40065;49.894;10.358;2023-07-24T14:09:25;7.90;;;4.95;;
54157;SDS011;40065;49.894;10.358;2023-07-24T14:14:26;7.82;;;5.00;;
54157;SDS011;40065;49.894;10.358;2023-07-24T14:19:28;7.82;;;5.03;;
54157;SDS011;40065;49.894;10.358;2023-07-24T14:24:30;7.80;;;4.65;;
54157;SDS011;40065;49.894;10.358;2023-07-24T14:29:32;6.80;;;4.60;;
54157;SDS011;40065;49.894;10.358;2023-07-24T14:34:34;8.60;;;5.18;;
54157;SDS011;40065;49.894;10.358;2023-07-24T14:39:36;8.80;;;5.18;;
54157;SDS011;40065;49.894;10.358;2023-07-24T14:44:38;9.18;;;5.43;;
54157;SDS011;40065;49.894;10.358;2023-07-24T14:49:40;7.50;;;5.35;;
54157;SDS011;40065;49.894;10.358;2023-07-24T14:54:41;7.97;;;5.38;;
54157;SDS011;40065;49.894;10.358;2023-07-24T14:59:43;7.13;;;4.75;;
54157;SDS011;40065;49.894;10.358;2023-07-24T15:04:45;8.77;;;4.80;;
54157;SDS011;40065;49.894;10.358;2023-07-24T15:09:47;8.07;;;5.20;;
54157;SDS011;40065;49.894;10.358;2023-07-24T15:14:49;7.25;;;5.00;;
54157;SDS011;40065;49.894;10.358;2023-07-24T15:19:51;9.48;;;4.95;;
54157;SDS011;40065;49.894;10.358;2023-07-24T15:24:53;8.85;;;4.68;;
54157;SDS011;40065;49.894;10.358;2023-07-24T15:29:55;9.82;;;5.13;;
54157;SDS011;40065;49.894;10.358;2023-07-24T15:34:57;8.02;;;4.68;;
54157;SDS011;40065;49.894;10.358;2023-07-24T15:39:59;7.43;;;4.70;;
54157;SDS011;40065;49.894;10.358;2023-07-24T15:45:01;7.15;;;4.65;;
54157;SDS011;40065;49.894;10.358;2023-07-24T15:50:03;7.85;;;4.85;;
54157;SDS011;40065;49.894;10.358;2023-07-24T15:55:06;8.82;;;4.53;;
54157;SDS011;40065;49.894;10.358;2023-07-24T16:00:08;8.52;;;4.85;;
54157;SDS011;40065;49.894;10.358;2023-07-24T16:05:17;6.85;;;4.60;;
54157;SDS011;40065;49.894;10.358;2023-07-24T16:10:20;7.75;;;4.85;;
54157;SDS011;40065;49.894;10.358;2023-07-24T16:15:23;7.38;;;5.07;;
54157;SDS011;40065;49.894;10.358;2023-07-24T16:20:27;7.68;;;4.70;;
54157;SDS011;40065;49.894;10.358;2023-07-24T16:25:29;7.97;;;5.07;;
54157;SDS011;40065;49.894;10.358;2023-07-24T16:30:31;7.95;;;4.95;;
54157;SDS011;40065;49.894;10.358;2023-07-24T16:35:35;7.90;;;4.88;;
54157;SDS011;40065;49.894;10.358;2023-07-24T16:40:37;7.75;;;5.05;;
54157;SDS011;40065;49.894;10.358;2023-07-24T16:45:38;7.15;;;4.40;;
54157;SDS011;40065;49.894;10.358;2023-07-24T16:50:40;7.78;;;4.55;;
54157;SDS011;40065;49.894;10.358;2023-07-24T16:55:42;7.65;;;4.70;;
54157;SDS011;40065;49.894;10.358;2023-07-24T17:00:44;8.27;;;5.00;;
54157;SDS011;40065;49.894;10.358;2023-07-24T17:05:46;7.97;;;5.00;;
54157;SDS011;40065;49.894;10.358;2023-07-24T17:10:48;8.27;;;4.85;;
54157;SDS011;40065;49.894;10.358;2023-07-24T17:15:53;6.70;;;4.35;;
54157;SDS011;40065;49.894;10.358;2023-07-24T17:20:55;8.50;;;4.88;;
54157;SDS011;40065;49.894;10.358;2023-07-24T17:25:57;6.40;;;4.30;;
54157;SDS011;40065;49.894;10.358;2023-07-24T17:30:59;7.50;;;4.25;;
54157;SDS011;40065;49.894;10.358;2023-07-24T17:36:01;9.30;;;5.38;;
54157;SDS011;40065;49.894;10.358;2023-07-24T17:41:03;9.18;;;5.00;;
54157;SDS011;40065;49.894;10.358;2023-07-24T17:46:05;8.07;;;4.75;;
54157;SDS011;40065;49.894;10.358;2023-07-24T17:51:07;6.60;;;3.70;;
54157;SDS011;40065;49.894;10.358;2023-07-24T17:56:09;6.35;;;3.83;;
54157;SDS011;40065;49.894;10.358;2023-07-24T18:01:11;5.60;;;3.58;;
54157;SDS011;40065;49.894;10.358;2023-07-24T18:06:13;4.72;;;2.80;;
54157;SDS011;40065;49.894;10.358;2023-07-24T18:11:15;4.43;;;2.58;;
54157;SDS011;40065;49.894;10.358;2023-07-24T18:16:18;4.07;;;2.33;;
54157;SDS011;40065;49.894;10.358;2023-07-24T18:21:20;5.60;;;2.13;;
54157;SDS011;40065;49.894;10.358;2023-07-24T18:26:22;3.30;;;1.90;;
54157;SDS011;40065;49.894;10.358;2023-07-24T18:31:25;4.63;;;2.47;;
54157;SDS011;40065;49.894;10.358;2023-07-24T18:36:28;5.18;;;2.30;;
54157;SDS011;40065;49.894;10.358;2023-07-24T18:41:30;3.67;;;2.30;;
54157;SDS011;40065;49.894;10.358;2023-07-24T18:46:33;4.95;;;2.20;;
54157;SDS011;40065;49.894;10.358;2023-07-24T18:51:35;3.30;;;1.95;;
54157;SDS011;40065;49.894;10.358;2023-07-24T18:56:37;4.05;;;2.30;;
54157;SDS011;40065;49.894;10.358;2023-07-24T19:01:39;8.38;;;3.10;;
54157;SDS011;40065;49.894;10.358;2023-07-24T19:06:42;6.13;;;3.40;;
54157;SDS011;40065;49.894;10.358;2023-07-24T19:11:44;5.07;;;2.75;;
54157;SDS011;40065;49.894;10.358;2023-07-24T19:16:45;5.25;;;2.90;;
54157;SDS011;40065;49.894;10.358;2023-07-24T19:21:47;6.22;;;2.90;;
54157;SDS011;40065;49.894;10.358;2023-07-24T19:26:50;4.55;;;2.63;;
54157;SDS011;40065;49.894;10.358;2023-07-24T19:31:51;4.43;;;2.05;;
54157;SDS011;40065;49.894;10.358;2023-07-24T19:36:54;5.20;;;2.65;;
54157;SDS011;40065;49.894;10.358;2023-07-24T19:41:56;3.42;;;2.05;;
54157;SDS011;40065;49.894;10.358;2023-07-24T19:46:57;6.35;;;2.60;;
54157;SDS011;40065;49.894;10.358;2023-07-24T19:52:00;3.28;;;2.40;;
54157;SDS011;40065;49.894;10.358;2023-07-24T19:57:02;4.13;;;2.28;;
54157;SDS011;40065;49.894;10.358;2023-07-24T20:02:05;3.85;;;2.47;;
54157;SDS011;40065;49.894;10.358;2023-07-24T20:07:08;4.00;;;2.50;;
54157;SDS011;40065;49.894;10.358;2023-07-24T20:12:10;4.72;;;2.80;;
54157;SDS011;40065;49.894;10.358;2023-07-24T20:17:12;3.38;;;2.10;;
54157;SDS011;40065;49.894;10.358;2023-07-24T20:22:14;4.38;;;2.22;;
54157;SDS011;40065;49.894;10.358;2023-07-24T20:27:16;4.95;;;2.42;;
54157;SDS011;40065;49.894;10.358;2023-07-24T20:32:18;3.03;;;2.00;;
54157;SDS011;40065;49.894;10.358;2023-07-24T20:37:20;3.72;;;2.10;;
54157;SDS011;40065;49.894;10.358;2023-07-24T20:42:22;5.13;;;1.85;;
54157;SDS011;40065;49.894;10.358;2023-07-24T20:47:25;4.28;;;1.73;;
54157;SDS011;40065;49.894;10.358;2023-07-24T20:52:27;4.38;;;1.60;;
54157;SDS011;40065;49.894;10.358;2023-07-24T20:57:28;3.28;;;1.92;;
54157;SDS011;40065;49.894;10.358;2023-07-24T21:02:30;4.63;;;1.80;;
54157;SDS011;40065;49.894;10.358;2023-07-24T21:07:32;3.33;;;1.20;;
54157;SDS011;40065;49.894;10.358;2023-07-24T21:12:34;3.75;;;1.73;;
54157;SDS011;40065;49.894;10.358;2023-07-24T21:17:36;3.28;;;1.52;;
54157;SDS011;40065;49.894;10.358;2023-07-24T21:22:38;2.97;;;1.80;;
54157;SDS011;40065;49.894;10.358;2023-07-24T21:27:40;2.88;;;1.20;;
54157;SDS011;40065;49.894;10.358;2023-07-24T21:32:42;2.85;;;1.45;;
54157;SDS011;40065;49.894;10.358;2023-07-24T21:37:44;2.75;;;1.30;;
54157;SDS011;40065;49.894;10.358;2023-07-24T21:42:46;4.07;;;1.55;;
54157;SDS011;40065;49.894;10.358;2023-07-24T21:47:48;2.95;;;1.33;;
54157;SDS011;40065;49.894;10.358;2023-07-24T21:52:50;2.40;;;1.40;;
54157;SDS011;40065;49.894;10.358;2023-07-24T21:57:52;3.58;;;1.55;;
54157;SDS011;40065;49.894;10.358;2023-07-24T22:07:58;3.15;;;1.58;;
54157;SDS011;40065;49.894;10.358;2023-07-24T22:12:59;3.75;;;1.50;;
54157;SDS011;40065;49.894;10.358;2023-07-24T22:18:01;2.80;;;1.55;;
54157;SDS011;40065;49.894;10.358;2023-07-24T22:23:04;3.95;;;1.90;;
54157;SDS011;40065;49.894;10.358;2023-07-24T22:28:06;4.82;;;2.10;;
54157;SDS011;40065;49.894;10.358;2023-07-24T22:33:08;3.63;;;2.20;;
54157;SDS011;40065;49.894;10.358;2023-07-24T22:38:10;3.58;;;2.03;;
54157;SDS011;40065;49.894;10.358;2023-07-24T22:43:12;5.63;;;2.35;;
54157;SDS011;40065;49.894;10.358;2023-07-24T22:48:14;3.20;;;1.92;;
54157;SDS011;40065;49.894;10.358;2023-07-24T22:53:16;7.25;;;2.17;;
54157;SDS011;40065;49.894;10.358;2023-07-24T22:58:18;3.53;;;2.38;;
54157;SDS011;40065;49.894;10.358;2023-07-24T23:03:19;3.33;;;1.70;;
54157;SDS011;40065;49.894;10.358;2023-07-24T23:08:22;4.57;;;2.20;;
54157;SDS011;40065;49.894;10.358;2023-07-24T23:13:24;4.60;;;2.20;;
54157;SDS011;40065;49.894;10.358;2023-07-24T23:18:26;3.70;;;1.90;;
54157;SDS011;40065;49.894;10.358;2023-07-24T23:23:28;5.60;;;2.20;;
54157;SDS011;40065;49.894;10.358;2023-07-24T23:28:29;3.30;;;1.70;;
54157;SDS011;40065;49.894;10.358;2023-07-24T23:33:32;3.28;;;2.10;;
54157;SDS011;40065;49.894;10.358;2023-07-24T23:38:34;4.93;;;2.25;;
54157;SDS011;40065;49.894;10.358;2023-07-24T23:43:37;3.58;;;2.13;;
54157;SDS011;40065;49.894;10.358;2023-07-24T23:48:39;4.50;;;2.05;;
54157;SDS011;40065;49.894;10.358;2023-07-24T23:53:41;3.45;;;2.10;;
54157;SDS011;40065;49.894;10.358;2023-07-24T23:58:44;3.42;;;1.98;;
